| time (UTC) | temp C | wind direction | speed KPH | gust KPH | rain 1hr cm | rain 24hr cm | rain mn cm | humidity % | barometer mb |
| 20260507013024 | 27 | 248 | 0.0 | 11.3 | 0.00 | 0.03 | 0.03 | 37 | 1015.6 |
| 20260507011528 | 27 | 240 | 3.2 | 12.9 | 0.00 | 0.03 | 0.03 | 35 | 1015.4 |
| 20260507010028 | 27 | 245 | 3.2 | 16.1 | 0.00 | 0.03 | 0.03 | 31 | 1015.4 |
| 20260507004536 | 27 | 340 | 0.0 | 3.2 | 0.00 | 0.03 | 0.03 | 31 | 1015.4 |
| 20260507003030 | 27 | 247 | 4.8 | 12.9 | 0.00 | 0.03 | 0.03 | 31 | 1015.5 |
| 20260507001521 | 28 | 215 | 0.0 | 4.8 | 0.00 | 0.03 | 0.03 | 23 | 1015.4 |
| 20260507000028 | 28 | 58 | 0.0 | 6.4 | 0.00 | 0.03 | 0.03 | 22 | 1015.3 |
| 20260506234530 | 27 | 70 | 1.6 | 9.7 | 0.00 | 0.03 | 0.03 | 25 | 1015.4 |
| 20260506233028 | 27 | 53 | 0.0 | 9.7 | 0.00 | 0.03 | 0.03 | 24 | 1015.4 |
| 20260506231529 | 28 | 63 | 1.6 | 9.7 | 0.00 | 0.03 | 0.03 | 25 | 1015.6 |
| 20260506230024 | 27 | 65 | 1.6 | 9.7 | 0.00 | 0.03 | 0.03 | 23 | 1015.7 |
| 20260506224528 | 27 | 60 | 0.0 | 16.1 | 0.00 | 0.03 | 0.03 | 23 | 1015.8 |
| 20260506223027 | 27 | 40 | 1.6 | 14.5 | 0.00 | 0.03 | 0.03 | 22 | 1016.0 |
| 20260506221517 | 27 | 51 | 3.2 | 8.0 | 0.00 | 0.03 | 0.03 | 26 | 1016.0 |
| 20260506220031 | 27 | 339 | 0.0 | 8.0 | 0.00 | 0.03 | 0.03 | 27 | 1016.3 |
| 20260506214524 | 26 | 63 | 0.0 | 6.4 | 0.00 | 0.03 | 0.03 | 25 | 1016.6 |
| 20260506213028 | 26 | 73 | 3.2 | 9.7 | 0.00 | 0.03 | 0.03 | 26 | 1016.7 |
| 20260506211513 | 26 | 57 | 1.6 | 9.7 | 0.00 | 0.03 | 0.03 | 28 | 1016.7 |
| 20260506210022 | 25 | 52 | 0.0 | 8.0 | 0.00 | 0.03 | 0.03 | 29 | 1016.8 |
| 20260506204522 | 25 | 56 | 0.0 | 9.7 | 0.00 | 0.03 | 0.03 | 31 | 1016.9 |
| 20260506203023 | 25 | 64 | 1.6 | 8.0 | 0.00 | 0.03 | 0.03 | 29 | 1017.1 |
| 20260506201523 | 25 | 29 | 0.0 | 8.0 | 0.00 | 0.03 | 0.03 | 32 | 1017.2 |
| 20260506200022 | 25 | 82 | 0.0 | 9.7 | 0.00 | 0.03 | 0.03 | 29 | 1017.2 |
| 20260506194519 | 24 | 14 | 3.2 | 11.3 | 0.00 | 0.03 | 0.03 | 31 | 1017.3 |
| 20260506193024 | 23 | 248 | 0.0 | 9.7 | 0.00 | 0.03 | 0.03 | 35 | 1017.5 |
| 20260506191507 | 23 | 53 | 0.0 | 3.2 | 0.00 | 0.03 | 0.03 | 32 | 1017.6 |
| 20260506190022 | 23 | 302 | 1.6 | 8.0 | 0.00 | 0.03 | 0.03 | 33 | 1017.7 |
| 20260506184518 | 22 | 58 | 0.0 | 4.8 | 0.00 | 0.03 | 0.03 | 35 | 1017.7 |
| 20260506183005 | 22 | 227 | 1.6 | 9.7 | 0.00 | 0.05 | 0.03 | 33 | 1017.8 |
| 20260506181503 | 21 | 86 | 0.0 | 8.0 | 0.00 | 0.05 | 0.03 | 37 | 1017.9 |
| 20260506180012 | 21 | 56 | 0.0 | 6.4 | 0.00 | 0.05 | 0.03 | 40 | 1018.0 |
| 20260506174515 | 20 | 258 | 0.0 | 4.8 | 0.00 | 0.05 | 0.03 | 40 | 1017.9 |
| 20260506173022 | 20 | 193 | 0.0 | 3.2 | 0.00 | 0.05 | 0.03 | 44 | 1018.1 |